KBLM/BLM METAR and TAF weather

Enter ICAO airport designator
Station Type Date Time Source
KBLM METAR 2019/12/14 05:56 UTC NOAA

KBLM 140556Z AUTO 08011G17KT 4SM RA BR OVC003 12/12 A2973 RMK AO2 PRESFR SLP067 P0022 60081 T01220122 10128 20111 58072


Station Type Date Time Source
KBLM Decoded METAR 2019/12/14 05:56 UTC NOAA

Belmar-Farmingdale, NJ, United States (KBLM) 40-11N 074-08W
Dec 14, 2019 - 12:56 AM EST / 2019.12.14 0556 UTC
Wind: from the E (080 degrees) at 13 MPH (11 KT) gusting to 20 MPH (17 KT):0
Visibility: 4 mile(s):0
Sky conditions: overcast
Weather: rain; mist
Precipitation last hour: 0.22 inches
Temperature: 54.0 F (12.2 C)
Dew Point: 54.0 F (12.2 C)
Relative Humidity: 100%
Pressure (altimeter): 29.73 in. Hg (1006 hPa)
Pressure tendency: falling rapidly - 0.21 inches (7.2 hPa) lower than three hours ago
ob: KBLM 140556Z AUTO 08011G17KT 4SM RA BR OVC003 12/12 A2973 RMK AO2 PRESFR SLP067 P0022 60081 T01220122 10128 20111 58072
cycle: 6

Station Type Date Time Source
KBLM TAF UTC NOAA

Error!

Example: see airport list